Time;durP1;ratioP1;P1;durP2;ratioP2;P2;SDS_P1;SDS_P2;PMS_P1;PMS_P2;Temp;Humidity;BMP_temperature;BMP_pressure;BME280_temperature;BME280_humidity;BME280_pressure;Samples;Min_cycle;Max_cycle;Signal;HPM_P1;HPM_P2
2024/01/15 00:00:13;;;;;;;8.33;3.10;;;;;;;3.50;100.00;100746.03;2087446;28;20215;-71
2024/01/15 00:01:14;;;;;;;5.57;2.77;;;;;;;3.50;100.00;100754.25;2086438;28;20194;-71
2024/01/15 00:02:15;;;;;;;10.13;3.47;;;;;;;4.14;100.00;100836.47;2087338;28;20660;-71
2024/01/15 00:03:15;;;;;;;6.63;2.73;;;;;;;4.18;100.00;100831.00;2086928;28;20255;-71
2024/01/15 00:04:16;;;;;;;5.80;3.03;;;;;;;4.23;100.00;100828.69;2088055;28;20230;-71
2024/01/15 00:05:16;;;;;;;5.13;2.60;;;;;;;3.30;100.00;100678.97;2087507;28;20250;-71
2024/01/15 00:06:17;;;;;;;5.73;2.93;;;;;;;4.30;100.00;100833.41;2087382;28;20210;-71
2024/01/15 00:07:17;;;;;;;7.00;3.13;;;;;;;4.31;100.00;100827.53;2087607;28;20275;-71
2024/01/15 00:08:18;;;;;;;11.30;3.93;;;;;;;4.30;100.00;100825.16;2085725;28;20192;-71
2024/01/15 00:09:18;;;;;;;8.80;3.33;;;;;;;4.18;100.00;100800.84;2087068;28;20245;-71
2024/01/15 00:10:19;;;;;;;5.97;2.87;;;;;;;4.32;100.00;100825.59;2087057;28;20219;-71
2024/01/15 00:11:19;;;;;;;7.10;3.50;;;;;;;3.38;100.00;100683.34;2086506;28;20191;-71
2024/01/15 00:12:20;;;;;;;6.57;3.03;;;;;;;4.25;100.00;100817.34;2087561;28;20192;-71
2024/01/15 00:13:20;;;;;;;5.97;2.67;;;;;;;4.32;100.00;100826.38;2086912;28;20199;-71
2024/01/15 00:14:21;;;;;;;5.93;3.30;;;;;;;4.11;100.00;100801.56;2087501;28;20190;-71
2024/01/15 00:15:22;;;;;;;5.77;2.93;;;;;;;4.15;100.00;100818.06;2087255;28;20277;-71
2024/01/15 00:16:22;;;;;;;7.65;3.05;;;;;;;4.13;100.00;100818.44;2087221;28;20637;-71
2024/01/15 00:17:23;;;;;;;5.90;3.23;;;;;;;4.17;100.00;100821.22;2086945;28;20594;-71
2024/01/15 00:18:23;;;;;;;6.50;3.80;;;;;;;4.19;100.00;100822.41;2086392;28;20716;-71
2024/01/15 00:19:24;;;;;;;6.23;3.30;;;;;;;3.69;100.00;100767.69;2087257;28;20585;-71
2024/01/15 00:20:25;;;;;;;6.87;3.07;;;;;;;4.19;100.00;100822.41;2087151;28;20199;-71
2024/01/15 00:21:25;;;;;;;10.20;3.20;;;;;;;4.12;100.00;100818.84;2087770;28;20193;-71
2024/01/15 00:22:27;;;;;;;4.27;2.70;;;;;;;4.14;100.00;100813.72;2086143;28;20617;-71
2024/01/15 00:23:27;;;;;;;6.28;2.92;;;;;;;4.13;100.00;100812.97;2087066;28;20638;-71
2024/01/15 00:24:28;;;;;;;9.00;3.17;;;;;;;4.12;100.00;100814.13;2087141;28;20191;-71
2024/01/15 00:25:28;;;;;;;6.37;3.57;;;;;;;4.10;100.00;100813.72;2086896;28;20186;-71
2024/01/15 00:26:29;;;;;;;4.57;3.17;;;;;;;4.09;100.00;100809.41;2086827;28;20202;-71
2024/01/15 00:27:29;;;;;;;8.23;3.37;;;;;;;3.62;100.00;100735.53;2086291;28;20191;-71
2024/01/15 00:28:30;;;;;;;8.50;3.27;;;;;;;4.03;100.00;100801.94;2086332;28;20198;-71
2024/01/15 00:29:30;;;;;;;5.80;3.50;;;;;;;3.83;100.00;100795.94;2087847;28;20247;-71
2024/01/15 00:30:31;;;;;;;5.43;3.00;;;;;;;3.64;100.00;100743.38;2087420;28;20244;-71
2024/01/15 00:31:31;;;;;;;4.90;2.77;;;;;;;4.03;100.00;100810.94;2087260;28;20265;-71
2024/01/15 00:32:32;;;;;;;7.40;3.43;;;;;;;4.02;100.00;100800.38;2086050;28;20232;-71
2024/01/15 00:33:32;;;;;;;5.70;3.60;;;;;;;3.93;100.00;100792.47;2087230;28;20205;-71
2024/01/15 00:34:33;;;;;;;6.17;3.53;;;;;;;3.98;100.00;100800.34;2087377;28;20257;-71
2024/01/15 00:35:33;;;;;;;6.23;3.23;;;;;;;3.93;100.00;100797.97;2086734;28;20245;-71
2024/01/15 00:36:34;;;;;;;5.23;2.73;;;;;;;3.88;100.00;100797.53;2087014;28;20241;-71
2024/01/15 00:37:34;;;;;;;7.20;3.30;;;;;;;3.87;100.00;100798.72;2086618;28;20190;-71
2024/01/15 00:38:35;;;;;;;6.07;3.93;;;;;;;3.27;100.00;100718.06;2085938;28;20187;-71
2024/01/15 00:39:35;;;;;;;6.50;3.93;;;;;;;3.90;100.00;100798.72;2086506;28;20200;-71
2024/01/15 00:40:36;;;;;;;9.33;4.17;;;;;;;3.88;100.00;100795.59;2086362;28;20300;-71
2024/01/15 00:41:37;;;;;;;6.27;3.67;;;;;;;3.77;100.00;100781.03;2086661;28;20233;-71
2024/01/15 00:42:37;;;;;;;6.37;3.23;;;;;;;3.58;100.00;100745.69;2086600;28;20198;-71
2024/01/15 00:43:38;;;;;;;6.57;3.20;;;;;;;3.88;100.00;100792.84;2086171;28;20260;-71
2024/01/15 00:44:38;;;;;;;8.40;3.53;;;;;;;3.88;100.00;100795.59;2086886;28;20248;-71
2024/01/15 00:45:39;;;;;;;6.03;3.10;;;;;;;3.28;100.00;100709.47;2087009;28;20193;-71
2024/01/15 00:46:45;;;;;;;6.17;3.10;;;;;;;3.84;100.00;100799.50;2087510;28;20259;-71
2024/01/15 00:47:45;;;;;;;7.30;3.88;;;;;;;3.87;100.00;100798.72;2086817;28;20202;-71
2024/01/15 00:48:46;;;;;;;5.57;3.23;;;;;;;3.87;100.00;100796.75;2086415;28;20233;-71
2024/01/15 00:49:47;;;;;;;6.13;3.13;;;;;;;3.88;100.00;100789.31;2087233;28;20190;-71
2024/01/15 00:50:47;;;;;;;11.23;3.50;;;;;;;3.87;100.00;100804.19;2087018;28;20191;-71
2024/01/15 00:51:48;;;;;;;7.87;3.60;;;;;;;3.09;100.00;100673.34;2087010;28;20217;-71
2024/01/15 00:52:48;;;;;;;6.90;3.30;;;;;;;3.75;100.00;100788.06;2086889;28;20195;-71
2024/01/15 00:53:49;;;;;;;9.63;3.40;;;;;;;3.65;100.00;100766.88;2085793;28;20215;-71
2024/01/15 00:54:49;;;;;;;5.13;2.87;;;;;;;3.85;100.00;100792.84;2086845;28;20182;-71
2024/01/15 00:55:50;;;;;;;6.23;3.60;;;;;;;2.94;100.00;100652.53;2087698;28;20190;-71
2024/01/15 00:56:50;;;;;;;5.80;2.80;;;;;;;3.89;100.00;100794.41;2087299;28;20227;-71
2024/01/15 00:57:51;;;;;;;4.30;2.67;;;;;;;3.89;100.00;100790.88;2086191;28;20298;-71
2024/01/15 00:58:51;;;;;;;5.73;3.00;;;;;;;3.42;100.00;100723.28;2087317;28;20192;-71
2024/01/15 00:59:52;;;;;;;5.80;2.70;;;;;;;3.90;100.00;100795.22;2086883;28;20566;-71
2024/01/15 01:00:53;;;;;;;5.67;3.03;;;;;;;3.90;100.00;100797.97;2086832;28;20237;-71
2024/01/15 01:01:53;;;;;;;6.67;3.07;;;;;;;3.67;100.00;100772.75;2086505;28;20191;-71
2024/01/15 01:02:54;;;;;;;6.73;3.73;;;;;;;3.87;100.00;100790.47;2086694;28;20240;-71
2024/01/15 01:03:54;;;;;;;6.70;3.27;;;;;;;3.89;100.00;100793.63;2086833;28;20189;-71
2024/01/15 01:04:55;;;;;;;10.53;3.63;;;;;;;3.56;100.00;100749.97;2087324;28;20215;-71
2024/01/15 01:05:55;;;;;;;6.33;3.87;;;;;;;3.95;100.00;100803.06;2086549;28;20577;-71
2024/01/15 01:06:56;;;;;;;5.47;3.00;;;;;;;3.94;100.00;100801.47;2086255;28;20767;-71
2024/01/15 01:07:56;;;;;;;6.57;3.63;;;;;;;3.92;100.00;100801.09;2085407;28;20253;-71
2024/01/15 01:08:57;;;;;;;4.73;3.20;;;;;;;3.91;100.00;100800.28;2086676;28;20211;-71
2024/01/15 01:09:57;;;;;;;6.53;3.43;;;;;;;3.93;100.00;100799.91;2086918;28;20186;-71
2024/01/15 01:10:58;;;;;;;7.47;4.43;;;;;;;3.92;100.00;100796.41;2087229;28;20265;-71
2024/01/15 01:11:58;;;;;;;8.17;4.47;;;;;;;3.90;100.00;100800.69;2087509;28;20195;-71
2024/01/15 01:12:59;;;;;;;8.27;4.27;;;;;;;3.89;100.00;100791.69;2086457;28;20190;-71
2024/01/15 01:14:00;;;;;;;11.23;4.50;;;;;;;3.89;100.00;100797.16;2086147;28;20194;-71
2024/01/15 01:15:01;;;;;;;6.20;3.80;;;;;;;3.87;100.00;100796.75;2086512;28;20675;-71
2024/01/15 01:16:01;;;;;;;7.27;3.73;;;;;;;3.40;100.00;100731.09;2086755;28;20557;-71
2024/01/15 01:17:02;;;;;;;7.07;3.90;;;;;;;3.81;100.00;100792.81;2086694;28;20200;-71
2024/01/15 01:18:03;;;;;;;7.20;4.03;;;;;;;3.80;100.00;100791.22;2085934;28;20180;-71
2024/01/15 01:19:03;;;;;;;9.33;4.33;;;;;;;3.77;100.00;100786.53;2086952;28;20196;-71
2024/01/15 01:20:06;;;;;;;10.60;5.00;;;;;;;3.74;100.00;100784.53;2087307;28;20218;-71
2024/01/15 01:21:06;;;;;;;8.77;5.40;;;;;;;3.23;100.00;100709.81;2087527;28;20178;-71
2024/01/15 01:22:07;;;;;;;8.70;4.70;;;;;;;3.66;100.00;100791.16;2085898;28;20193;-71
2024/01/15 01:23:07;;;;;;;11.67;5.67;;;;;;;3.68;100.00;100783.31;2085135;28;20198;-71
2024/01/15 01:24:08;;;;;;;9.87;5.10;;;;;;;3.65;100.00;100786.06;2086131;28;20195;-71
2024/01/15 01:25:09;;;;;;;9.23;4.53;;;;;;;3.60;100.00;100784.44;2086330;28;20639;-71
2024/01/15 01:26:09;;;;;;;14.03;6.83;;;;;;;3.58;100.00;100788.72;2086902;28;20659;-71
2024/01/15 01:27:09;;;;;;;13.93;6.47;;;;;;;3.01;100.00;100704.56;2086883;28;20621;-71
2024/01/15 01:28:10;;;;;;;14.13;6.43;;;;;;;3.50;100.00;100792.59;2085344;28;20677;-71
2024/01/15 01:29:11;;;;;;;11.97;7.10;;;;;;;2.20;100.00;100591.72;2087613;28;20626;-71
2024/01/15 01:30:11;;;;;;;11.77;7.20;;;;;;;3.26;100.00;100763.06;2086398;28;20221;-71
2024/01/15 01:31:12;;;;;;;14.53;6.67;;;;;;;2.59;100.00;100658.50;2087202;28;20671;-71
2024/01/15 01:32:12;;;;;;;13.33;6.47;;;;;;;3.41;100.00;100781.97;2086853;28;20191;-71
2024/01/15 01:33:13;;;;;;;14.30;6.90;;;;;;;3.21;100.00;100758.72;2086762;28;20647;-71
2024/01/15 01:34:15;;;;;;;17.17;7.53;;;;;;;3.34;100.00;100787.38;2086585;28;20206;-71
2024/01/15 01:35:15;;;;;;;19.33;9.18;;;;;;;3.24;100.00;100774.38;2085749;28;20197;-71
2024/01/15 01:36:16;;;;;;;15.33;7.83;;;;;;;3.13;100.00;100762.56;2086798;28;20281;-71
2024/01/15 01:37:16;;;;;;;12.43;7.83;;;;;;;3.22;100.00;100787.69;2087448;28;20195;-71
2024/01/15 01:38:17;;;;;;;15.30;7.33;;;;;;;2.57;100.00;100688.16;2086519;28;20202;-71
2024/01/15 01:39:17;;;;;;;14.80;7.87;;;;;;;3.19;100.00;100782.94;2088883;28;20555;-71
2024/01/15 01:40:18;;;;;;;16.13;8.30;;;;;;;3.02;100.00;100769.91;2088592;28;20276;-71
2024/01/15 01:41:18;;;;;;;14.83;7.97;;;;;;;3.16;100.00;100780.97;2088515;28;20230;-71
2024/01/15 01:42:19;;;;;;;16.77;7.90;;;;;;;3.01;100.00;100764.81;2088628;28;20274;-71
2024/01/15 01:43:19;;;;;;;20.30;7.03;;;;;;;3.11;100.00;100791.47;2088168;28;20259;-71
2024/01/15 01:44:20;;;;;;;22.67;7.80;;;;;;;3.09;100.00;100783.66;2088535;28;20195;-71
2024/01/15 01:45:20;;;;;;;14.50;6.73;;;;;;;3.07;100.00;100788.72;2088028;28;20242;-71
2024/01/15 01:46:21;;;;;;;13.03;7.60;;;;;;;3.05;100.00;100782.06;2087469;28;20232;-71
2024/01/15 01:47:21;;;;;;;15.67;7.87;;;;;;;2.90;100.00;100767.47;2088369;28;20199;-71
2024/01/15 01:48:23;;;;;;;18.37;7.23;;;;;;;2.98;100.00;100777.28;2087325;28;20252;-71
2024/01/15 01:49:24;;;;;;;10.65;6.43;;;;;;;2.98;100.00;100801.94;2088780;28;20206;-71
2024/01/15 01:50:25;;;;;;;14.20;6.70;;;;;;;2.97;100.00;100786.66;2088386;28;20197;-71
2024/01/15 01:51:25;;;;;;;13.20;6.50;;;;;;;2.96;100.00;100787.03;2087976;28;20329;-72
2024/01/15 01:52:26;;;;;;;19.43;6.90;;;;;;;2.95;100.00;100780.81;2088112;28;20631;-72
2024/01/15 01:53:28;;;;;;;16.13;8.50;;;;;;;2.06;100.00;100648.22;2088259;28;20189;-72
2024/01/15 01:54:31;;;;;;;15.10;6.47;;;;;;;2.86;100.00;100769.38;2089173;28;20191;-72
2024/01/15 01:55:33;;;;;;;14.68;6.40;;;;;;;2.87;100.00;100779.16;2087801;28;20189;-72
2024/01/15 01:56:34;;;;;;;11.05;6.13;;;;;;;2.01;100.00;100651.28;2087997;28;20212;-72
2024/01/15 01:57:35;;;;;;;13.00;6.80;;;;;;;2.02;100.00;100647.38;2087020;28;20208;-72
2024/01/15 01:58:36;;;;;;;10.85;5.82;;;;;;;2.79;100.00;100776.72;2087861;28;20268;-72
2024/01/15 01:59:37;;;;;;;11.98;6.13;;;;;;;1.77;100.00;100635.38;2088604;28;20201;-72
2024/01/15 02:00:38;;;;;;;17.33;6.40;;;;;;;2.65;100.00;100782.03;2088261;28;20227;-72
2024/01/15 02:01:39;;;;;;;15.98;7.60;;;;;;;1.81;100.00;100630.75;2088661;28;20188;-72
2024/01/15 02:02:39;;;;;;;15.07;8.63;;;;;;;2.79;100.00;100771.25;2087375;28;20261;-72
2024/01/15 02:03:40;;;;;;;12.63;6.67;;;;;;;2.76;100.00;100761.03;2088863;28;20427;-72
2024/01/15 02:04:41;;;;;;;11.23;5.93;;;;;;;2.80;100.00;100770.09;2088414;28;20195;-72
2024/01/15 02:05:43;;;;;;;11.47;6.00;;;;;;;2.80;100.00;100773.63;2087994;28;20194;-72
2024/01/15 02:06:43;;;;;;;14.15;7.10;;;;;;;2.83;100.00;100769.34;2087180;28;20190;-72
2024/01/15 02:07:44;;;;;;;13.33;6.33;;;;;;;2.84;100.00;100768.16;2087537;28;20211;-72
2024/01/15 02:08:45;;;;;;;14.18;5.90;;;;;;;2.31;100.00;100680.09;2087842;28;20225;-72
2024/01/15 02:09:45;;;;;;;16.00;7.70;;;;;;;2.85;100.00;100756.84;2087561;28;20315;-72
2024/01/15 02:10:46;;;;;;;16.80;9.07;;;;;;;2.85;100.00;100756.84;2087943;28;20198;-72
2024/01/15 02:11:47;;;;;;;15.17;7.17;;;;;;;2.84;100.00;100752.56;2088044;28;20193;-72
2024/01/15 02:12:48;;;;;;;16.17;7.47;;;;;;;2.88;100.00;100747.88;2087613;28;20850;-72
2024/01/15 02:13:49;;;;;;;17.23;7.63;;;;;;;2.91;100.00;100749.88;2088406;28;20303;-71
2024/01/15 02:14:49;;;;;;;12.43;7.00;;;;;;;2.73;100.00;100718.81;2088531;28;20287;-71
2024/01/15 02:15:50;;;;;;;13.97;6.93;;;;;;;2.80;100.00;100729.81;2088242;28;20204;-71
2024/01/15 02:16:51;;;;;;;16.90;7.20;;;;;;;2.23;100.00;100640.19;2087673;28;20188;-71
2024/01/15 02:17:57;;;;;;;10.60;6.47;;;;;;;2.90;100.00;100733.81;2087054;28;20231;-71
2024/01/15 02:18:58;;;;;;;15.65;7.28;;;;;;;2.93;100.00;100735.81;2087511;28;20199;-71
2024/01/15 02:19:58;;;;;;;13.07;7.53;;;;;;;2.92;100.00;100734.25;2086912;28;20242;-71
2024/01/15 02:20:59;;;;;;;15.83;6.97;;;;;;;2.93;100.00;100735.81;2088042;28;20195;-72
2024/01/15 02:21:59;;;;;;;13.67;6.73;;;;;;;2.87;100.00;100720.91;2088799;28;20184;-72
2024/01/15 02:23:11;;;;;;;15.83;6.83;;;;;;;2.95;100.00;100728.00;2088078;28;20195;-72
2024/01/15 02:24:11;;;;;;;15.57;6.70;;;;;;;2.72;100.00;100684.41;2087782;28;20250;-72
2024/01/15 02:25:12;;;;;;;15.10;7.53;;;;;;;2.90;100.00;100720.94;2088438;28;20283;-72
2024/01/15 02:26:14;;;;;;;17.93;7.60;;;;;;;2.92;100.00;100715.84;2087814;28;20196;-72
2024/01/15 02:27:15;;;;;;;13.43;7.25;;;;;;;2.93;100.00;100720.16;2087285;28;20196;-72
2024/01/15 02:28:17;;;;;;;13.17;6.73;;;;;;;2.88;100.00;100717.00;2087132;28;20195;-72
2024/01/15 02:29:18;;;;;;;12.30;6.65;;;;;;;2.39;100.00;100656.34;2088329;28;20476;-72
2024/01/15 02:30:18;;;;;;;11.73;6.67;;;;;;;2.40;100.00;100639.56;2088021;28;20177;-72
2024/01/15 02:31:19;;;;;;;14.93;7.73;;;;;;;2.32;100.00;100626.97;2088237;28;20191;-72
2024/01/15 02:32:19;;;;;;;12.67;7.63;;;;;;;2.92;100.00;100713.09;2088858;28;20177;-72
2024/01/15 02:33:20;;;;;;;17.13;8.30;;;;;;;2.25;100.00;100612.44;2087729;28;20187;-72
2024/01/15 02:34:20;;;;;;;10.33;6.83;;;;;;;2.89;100.00;100711.16;2087453;28;20203;-72
2024/01/15 02:35:21;;;;;;;16.43;7.90;;;;;;;2.90;100.00;100706.44;2088275;28;20257;-72
2024/01/15 02:36:21;;;;;;;16.33;7.37;;;;;;;2.89;100.00;100708.41;2087738;28;20192;-72
2024/01/15 02:37:22;;;;;;;13.57;7.30;;;;;;;2.07;100.00;100597.84;2087810;28;20200;-72
2024/01/15 02:38:22;;;;;;;16.13;7.53;;;;;;;2.92;100.00;100712.34;2086661;28;20559;-72
2024/01/15 02:39:23;;;;;;;15.07;7.60;;;;;;;2.94;100.00;100715.47;2088041;28;20272;-72
2024/01/15 02:40:23;;;;;;;15.93;7.93;;;;;;;2.94;100.00;100718.22;2088472;28;20259;-72
2024/01/15 02:41:24;;;;;;;12.60;6.50;;;;;;;2.95;100.00;100711.56;2088048;28;20204;-72
2024/01/15 02:42:26;;;;;;;10.60;6.43;;;;;;;2.97;100.00;100712.75;2087246;28;20673;-72
2024/01/15 02:43:26;;;;;;;12.90;7.93;;;;;;;2.96;100.00;100710.41;2088187;28;20712;-72
2024/01/15 02:44:27;;;;;;;15.33;7.23;;;;;;;1.80;100.00;100528.88;2088076;28;20604;-72
2024/01/15 02:45:28;;;;;;;14.10;7.20;;;;;;;1.72;100.00;100516.31;2087908;28;20634;-72
2024/01/15 02:46:28;;;;;;;17.33;8.63;;;;;;;3.03;100.00;100708.50;2087376;28;20223;-72
2024/01/15 02:47:29;;;;;;;14.97;7.30;;;;;;;3.00;100.00;100703.00;2087623;28;20211;-72
2024/01/15 02:48:29;;;;;;;12.97;7.50;;;;;;;2.17;100.00;100565.13;2086632;28;20196;-72
2024/01/15 02:49:31;;;;;;;18.37;7.83;;;;;;;3.01;100.00;100694.41;2088021;28;20192;-72
2024/01/15 02:50:31;;;;;;;15.20;7.75;;;;;;;2.99;100.00;100699.47;2087956;28;20180;-72
2024/01/15 02:51:32;;;;;;;13.20;7.77;;;;;;;3.00;100.00;100697.53;2088012;28;20212;-72
2024/01/15 02:52:32;;;;;;;19.87;8.50;;;;;;;2.98;100.00;100688.94;2087552;28;20187;-72
2024/01/15 02:53:33;;;;;;;16.47;7.33;;;;;;;2.84;100.00;100667.72;2087999;28;20196;-72
2024/01/15 02:54:33;;;;;;;15.37;8.43;;;;;;;2.99;100.00;100696.72;2087900;28;20267;-72
2024/01/15 02:55:34;;;;;;;17.50;8.43;;;;;;;2.97;100.00;100693.59;2087918;28;20195;-72
2024/01/15 02:56:34;;;;;;;13.00;7.30;;;;;;;2.99;100.00;100688.53;2087598;28;20241;-72
2024/01/15 02:57:35;;;;;;;16.13;7.93;;;;;;;2.96;100.00;100694.78;2087939;28;20614;-72
2024/01/15 02:58:35;;;;;;;13.93;8.73;;;;;;;2.97;100.00;100692.84;2086769;28;20257;-72
2024/01/15 02:59:36;;;;;;;11.90;7.60;;;;;;;2.79;100.00;100668.06;2087301;28;20231;-72
2024/01/15 03:00:36;;;;;;;16.67;8.23;;;;;;;2.96;100.00;100691.25;2087244;28;20265;-72
2024/01/15 03:01:37;;;;;;;15.87;8.17;;;;;;;2.95;100.00;100695.16;2087866;28;20223;-72
2024/01/15 03:02:43;;;;;;;15.17;8.37;;;;;;;2.92;100.00;100690.44;2087101;28;20223;-72
2024/01/15 03:03:43;;;;;;;13.60;7.43;;;;;;;2.90;100.00;100688.09;2087501;28;20226;-72
2024/01/15 03:04:44;;;;;;;23.53;11.40;;;;;;;2.91;100.00;100688.84;2088009;28;20249;-72
2024/01/15 03:05:45;;;;;;;14.65;7.45;;;;;;;2.89;100.00;100683.78;2087590;28;20184;-72
2024/01/15 03:06:45;;;;;;;16.93;9.97;;;;;;;2.00;100.00;100551.31;2088172;28;20191;-72
2024/01/15 03:07:46;;;;;;;18.30;10.07;;;;;;;2.69;100.00;100655.06;2086385;28;20252;-72
2024/01/15 03:08:46;;;;;;;22.57;11.40;;;;;;;2.83;100.00;100681.75;2086855;28;20204;-72
2024/01/15 03:09:47;;;;;;;17.23;10.20;;;;;;;2.84;100.00;100675.91;2086646;28;20658;-72
2024/01/15 03:10:47;;;;;;;19.20;10.90;;;;;;;2.82;100.00;100683.69;2088138;28;20196;-72
2024/01/15 03:11:48;;;;;;;16.13;7.47;;;;;;;2.80;100.00;100679.78;2087661;28;20295;-72
2024/01/15 03:12:49;;;;;;;15.93;8.13;;;;;;;2.76;100.00;100679.75;2087574;28;20202;-72
2024/01/15 03:13:49;;;;;;;14.97;7.73;;;;;;;2.75;100.00;100682.84;2087680;28;20192;-72
2024/01/15 03:14:50;;;;;;;17.93;7.83;;;;;;;2.72;100.00;100675.41;2088640;28;20184;-72
2024/01/15 03:15:50;;;;;;;16.00;7.33;;;;;;;2.72;100.00;100681.66;2087888;28;20203;-72
2024/01/15 03:16:51;;;;;;;15.87;7.33;;;;;;;2.66;100.00;100676.91;2087913;28;20199;-72
2024/01/15 03:17:52;;;;;;;13.43;7.50;;;;;;;2.09;100.00;100596.31;2086516;28;20288;-72
2024/01/15 03:18:52;;;;;;;16.40;7.53;;;;;;;2.28;100.00;100617.97;2088071;28;20631;-72
2024/01/15 03:19:53;;;;;;;11.53;6.50;;;;;;;2.60;100.00;100667.47;2087027;28;20581;-72
2024/01/15 03:20:54;;;;;;;15.33;7.30;;;;;;;2.56;100.00;100670.19;2087823;28;20195;-72
2024/01/15 03:21:54;;;;;;;13.17;7.63;;;;;;;2.57;100.00;100679.19;2087283;28;20188;-72
2024/01/15 03:22:55;;;;;;;15.20;8.23;;;;;;;1.88;100.00;100560.56;2088038;28;20184;-72
2024/01/15 03:23:55;;;;;;;13.23;6.83;;;;;;;2.53;100.00;100670.97;2087641;28;20676;-72
2024/01/15 03:24:56;;;;;;;14.70;7.23;;;;;;;2.42;100.00;100648.16;2088092;28;20256;-72
2024/01/15 03:25:56;;;;;;;12.63;6.43;;;;;;;2.50;100.00;100662.69;2087725;28;20279;-72
2024/01/15 03:26:57;;;;;;;13.30;7.90;;;;;;;2.48;100.00;100660.38;2087948;28;20202;-72
2024/01/15 03:27:57;;;;;;;14.03;6.13;;;;;;;2.48;100.00;100659.56;2086569;28;20206;-72
2024/01/15 03:28:58;;;;;;;15.10;8.10;;;;;;;1.63;100.00;100526.75;2087837;28;20180;-72
2024/01/15 03:29:58;;;;;;;13.83;7.60;;;;;;;2.43;100.00;100655.22;2086606;28;20512;-72
2024/01/15 03:30:59;;;;;;;10.13;6.63;;;;;;;2.10;100.00;100611.53;2086935;28;20184;-72
2024/01/15 03:31:59;;;;;;;11.70;6.00;;;;;;;2.40;100.00;100658.72;2087403;28;20217;-72
2024/01/15 03:33:00;;;;;;;14.37;8.40;;;;;;;1.66;100.00;100533.41;2103279;28;20679;-72
2024/01/15 03:34:00;;;;;;;11.53;5.43;;;;;;;1.47;100.00;100503.56;2103532;28;20278;-72
2024/01/15 03:35:01;;;;;;;11.00;6.17;;;;;;;1.23;100.00;100471.31;2087917;28;20192;-72
2024/01/15 03:36:02;;;;;;;11.17;5.43;;;;;;;2.40;100.00;100641.50;2087481;28;20249;-72
2024/01/15 03:37:02;;;;;;;15.93;6.83;;;;;;;1.55;100.00;100516.91;2087760;28;25237;-72
2024/01/15 03:38:03;;;;;;;13.73;7.07;;;;;;;2.34;100.00;100641.06;2086543;28;20654;-72
2024/01/15 03:39:03;;;;;;;13.03;6.80;;;;;;;2.32;100.00;100642.63;2087723;28;20184;-72
2024/01/15 03:40:04;;;;;;;9.83;4.83;;;;;;;2.18;100.00;100624.13;2103840;28;20194;-72
2024/01/15 03:41:05;;;;;;;9.13;4.68;;;;;;;2.35;100.00;100642.66;2102068;28;20343;-72
2024/01/15 03:42:06;;;;;;;11.07;6.10;;;;;;;2.28;100.00;100617.19;2087264;28;20203;-72
2024/01/15 03:43:07;;;;;;;8.48;4.45;;;;;;;2.35;100.00;100637.19;2087284;28;20209;-72
2024/01/15 03:44:07;;;;;;;11.20;5.67;;;;;;;2.32;100.00;100632.44;2087384;28;20207;-72
2024/01/15 03:45:08;;;;;;;13.03;6.77;;;;;;;1.74;100.00;100535.03;2087893;28;20199;-72
2024/01/15 03:46:08;;;;;;;15.53;5.63;;;;;;;2.33;100.00;100636.78;2086845;28;20228;-72
2024/01/15 03:47:09;;;;;;;9.27;5.03;;;;;;;1.89;100.00;100564.06;2087664;28;20275;-72
2024/01/15 03:48:09;;;;;;;8.20;5.00;;;;;;;2.34;100.00;100662.97;2086915;28;20191;-72
2024/01/15 03:49:10;;;;;;;11.27;5.47;;;;;;;2.33;100.00;100634.03;2087543;28;20317;-72
2024/01/15 03:50:10;;;;;;;12.80;6.00;;;;;;;2.37;100.00;100659.44;2087709;28;20573;-72
2024/01/15 03:51:11;;;;;;;9.93;5.87;;;;;;;2.40;100.00;100641.50;2086850;28;20728;-72
2024/01/15 03:52:11;;;;;;;14.07;6.30;;;;;;;2.40;100.00;100639.56;2087161;28;20203;-72
2024/01/15 03:53:12;;;;;;;10.40;6.17;;;;;;;2.40;100.00;100634.09;2086598;28;20203;-72
2024/01/15 03:54:12;;;;;;;9.20;4.90;;;;;;;2.38;100.00;100630.16;2086548;28;20741;-72
2024/01/15 03:55:13;;;;;;;8.63;5.77;;;;;;;2.43;100.00;100641.56;2087611;28;20199;-72
2024/01/15 03:56:13;;;;;;;9.97;5.00;;;;;;;2.42;100.00;100633.72;2088105;28;20278;-72
2024/01/15 03:57:14;;;;;;;8.07;4.50;;;;;;;2.45;100.00;100635.69;2088080;28;20220;-72
2024/01/15 03:58:17;;;;;;;10.90;5.57;;;;;;;2.48;100.00;100626.75;2086672;28;20277;-72
2024/01/15 03:59:17;;;;;;;7.05;4.28;;;;;;;2.47;100.00;100625.19;2087510;28;20282;-72
2024/01/15 04:00:18;;;;;;;8.33;4.70;;;;;;;2.43;100.00;100618.88;2086357;28;20216;-72
2024/01/15 04:01:19;;;;;;;8.40;4.17;;;;;;;2.44;100.00;100626.72;2085899;28;20207;-72
2024/01/15 04:02:19;;;;;;;8.43;3.90;;;;;;;2.44;100.00;100628.66;2087416;28;20338;-72
2024/01/15 04:03:20;;;;;;;6.80;3.57;;;;;;;2.46;100.00;100618.13;2086907;28;20180;-72
2024/01/15 04:04:20;;;;;;;8.83;4.20;;;;;;;2.48;100.00;100615.81;2087449;28;20277;-72
2024/01/15 04:05:21;;;;;;;8.33;3.80;;;;;;;2.47;100.00;100611.50;2088144;28;20782;-72
2024/01/15 04:06:21;;;;;;;6.47;3.07;;;;;;;2.45;100.00;100616.53;2087347;28;20302;-72
2024/01/15 04:07:22;;;;;;;8.20;4.00;;;;;;;1.79;100.00;100499.19;2087430;28;20230;-72
2024/01/15 04:08:22;;;;;;;7.57;4.13;;;;;;;2.31;100.00;100591.84;2086836;28;20201;-72
2024/01/15 04:09:23;;;;;;;7.03;3.53;;;;;;;1.95;100.00;100529.81;2087538;28;20254;-72
2024/01/15 04:10:23;;;;;;;5.83;3.50;;;;;;;2.45;100.00;100614.59;2087292;28;20206;-72
2024/01/15 04:11:24;;;;;;;5.37;3.67;;;;;;;2.04;100.00;100552.91;2087484;28;20188;-72
2024/01/15 04:12:25;;;;;;;7.50;4.50;;;;;;;2.48;100.00;100616.59;2085695;28;20646;-72
2024/01/15 04:13:27;;;;;;;7.13;3.97;;;;;;;2.48;100.00;100622.06;2087347;28;20183;-72
2024/01/15 04:14:28;;;;;;;6.18;3.33;;;;;;;2.52;100.00;100611.91;2086563;28;20656;-72
2024/01/15 04:15:29;;;;;;;8.90;3.65;;;;;;;2.51;100.00;100617.78;2087018;28;20176;-72
2024/01/15 04:16:29;;;;;;;8.33;3.87;;;;;;;2.31;100.00;100575.44;2088038;28;20259;-72
2024/01/15 04:17:30;;;;;;;6.27;3.27;;;;;;;2.53;100.00;100612.72;2087213;28;20729;-72
2024/01/15 04:18:30;;;;;;;6.07;3.40;;;;;;;2.57;100.00;100611.56;2085888;28;20184;-72
2024/01/15 04:19:31;;;;;;;6.47;3.57;;;;;;;2.57;100.00;100613.53;2087278;28;20604;-72
2024/01/15 04:20:31;;;;;;;9.37;3.63;;;;;;;2.16;100.00;100549.88;2087323;28;20702;-72
2024/01/15 04:21:32;;;;;;;7.67;3.97;;;;;;;2.52;100.00;100602.94;2087102;28;20196;-72
2024/01/15 04:22:34;;;;;;;9.30;3.80;;;;;;;2.50;100.00;100602.53;2086142;28;20592;-72
2024/01/15 04:23:34;;;;;;;5.57;3.35;;;;;;;2.45;100.00;100600.13;2087126;28;20237;-72
2024/01/15 04:24:35;;;;;;;6.70;2.97;;;;;;;1.96;100.00;100515.75;2087252;28;20232;-72
2024/01/15 04:25:35;;;;;;;6.07;3.47;;;;;;;2.48;100.00;100608.41;2087869;28;20191;-72
2024/01/15 04:26:36;;;;;;;9.23;3.97;;;;;;;2.17;100.00;100572.56;2087038;28;20192;-72
2024/01/15 04:27:36;;;;;;;7.17;3.90;;;;;;;1.89;100.00;100525.81;2086831;28;20667;-72
2024/01/15 04:28:37;;;;;;;8.40;3.57;;;;;;;2.37;100.00;100615.69;2085863;28;20210;-72
2024/01/15 04:29:39;;;;;;;5.43;3.17;;;;;;;2.28;100.00;100592.56;2086451;28;20573;-72
2024/01/15 04:30:39;;;;;;;4.97;3.00;;;;;;;2.38;100.00;100611.03;2087089;28;20199;-72
2024/01/15 04:31:40;;;;;;;8.27;3.60;;;;;;;2.36;100.00;100616.09;2086306;28;20202;-72
2024/01/15 04:32:40;;;;;;;7.30;3.63;;;;;;;2.12;100.00;100570.16;2086219;28;20225;-72
2024/01/15 04:33:41;;;;;;;9.70;3.60;;;;;;;2.35;100.00;100607.09;2087467;28;20190;-72
2024/01/15 04:34:41;;;;;;;10.60;3.90;;;;;;;2.34;100.00;100610.19;2087348;28;20563;-72
2024/01/15 04:35:42;;;;;;;6.53;3.87;;;;;;;2.19;100.00;100622.16;2087386;28;20725;-72
2024/01/15 04:36:42;;;;;;;8.10;3.60;;;;;;;2.38;100.00;100608.28;2086618;28;20188;-72
2024/01/15 04:37:43;;;;;;;5.20;2.90;;;;;;;2.36;100.00;100616.09;2086916;28;20198;-72
2024/01/15 04:38:43;;;;;;;8.27;4.37;;;;;;;1.94;100.00;100552.81;2086482;28;20270;-72
2024/01/15 04:39:44;;;;;;;6.23;3.60;;;;;;;2.34;100.00;100615.66;2086972;28;20186;-72
2024/01/15 04:40:44;;;;;;;7.20;3.13;;;;;;;2.26;100.00;100611.31;2086636;28;20203;-72